Merced Regional Macready Field
KMCE : now visible

Airfield :











YOU CAN JOIN US ON...

 
LOGIN :

Register | Disclaimer

   EN    FR    IT 

 









Legend :    VFR   Marginal VFR   IFR   Intensive IFR   Very Intensive IFR
Visi :
Ceiling :
>= 8 km
>= 3000ft
5 to 8 km
1000 to 3000 ft
1500m to 5 km
500 to 1000 ft
800 to 1500m
200 to 500 ft
< 800m
< 200 ft
Symbols :   Thunderstorms  Fog  Heavy snow  Heavy precipitations  Wind > 20 kt






- Airport Elevation : 155 ft
- IATA code : MCE


KMCE - Merced Regional Macready Field

CURRENT METAR :
  • 270253Z AUTO 13015KT 10SM BKN060 OVC070 09/00 A2993 RMK AO2 SLP136 T00890000 56013 $

EXPIRED METARs :
  • 270153Z AUTO 12013KT 10SM OVC100 09/01 A2993 RMK AO2 SLP137 T00890006 $
  • 270053Z AUTO 13013KT 10SM OVC100 09/M01 A2995 RMK AO2 SLP141 T00941006 $

TAF KMCE
Valid from the 27 at 00:00 until the 28 at 00:00 UTC


262320Z 2700/2724 14012KT P6SM OVC150
TEMPO 2705/2708 4SM RA OVC025
FM270800 12023G36KT 6SM BR OVC029
TEMPO 2708/2709 4SM RA OVC015
FM272000 14022G32KT 2SM RA OVC009
FM272300 14019KT 1 1/2SM RA OVC014
KZOA FIR / North America



MET'MAP, your aeronautical weather chart ! - Copyright ORBIFLY December 2007 - Disclaimer

ORBIFLY MET'MAP TEAM :

Programming & Development : Alexandra Zaïnal
Concept & original design : Baudouin d'Aumeries
Assistance for programming : Marc-Olivier Méhu
Technical & hardware support : Manuel Goepfert

Contact : metmap@orbifly.com




SOURCES & CREDITS :

   NOAA       Earth
Advisory